Time;durP1;ratioP1;P1;durP2;ratioP2;P2;SDS_P1;SDS_P2;PMS_P1;PMS_P2;Temp;Humidity;BMP_temperature;BMP_pressure;BME280_temperature;BME280_humidity;BME280_pressure;Samples;Min_cycle;Max_cycle;Signal;HPM_P1;HPM_P2
2023/04/22 00:01:01;;;;;;;25.33;13.73;;;12.10;99.90;;;;;;5077950;28;20028;-73
2023/04/22 00:03:27;;;;;;;24.25;12.00;;;12.10;99.90;;;;;;5078034;28;20035;-73
2023/04/22 00:05:53;;;;;;;25.75;13.50;;;12.00;99.90;;;;;;5076839;28;20154;-73
2023/04/22 00:08:18;;;;;;;23.40;12.68;;;12.00;99.90;;;;;;5077421;28;20048;-73
2023/04/22 00:10:44;;;;;;;24.42;13.77;;;12.00;99.90;;;;;;5077283;28;20047;-73
2023/04/22 00:13:10;;;;;;;24.83;12.85;;;12.10;99.90;;;;;;5077635;28;20051;-73
2023/04/22 00:15:35;;;;;;;22.73;12.40;;;12.00;99.90;;;;;;5077266;28;20021;-73
2023/04/22 00:18:01;;;;;;;21.08;11.82;;;12.00;99.90;;;;;;5077344;28;20024;-73
2023/04/22 00:20:26;;;;;;;21.02;11.35;;;12.00;99.90;;;;;;5076700;28;20032;-73
2023/04/22 00:22:52;;;;;;;22.95;11.30;;;12.00;99.90;;;;;;5076357;28;20031;-73
2023/04/22 00:25:18;;;;;;;24.48;12.38;;;12.00;99.90;;;;;;5076636;28;20020;-73
2023/04/22 00:27:44;;;;;;;18.88;11.57;;;11.90;99.90;;;;;;5077260;28;20085;-73
2023/04/22 00:30:10;;;;;;;21.48;11.45;;;11.90;99.90;;;;;;5076364;28;20020;-73
2023/04/22 00:32:35;;;;;;;21.80;11.27;;;11.80;99.90;;;;;;5076435;28;20025;-73
2023/04/22 00:35:01;;;;;;;22.20;11.45;;;11.70;99.90;;;;;;5075968;28;20043;-73
2023/04/22 00:37:27;;;;;;;17.85;10.32;;;11.70;99.90;;;;;;5076544;28;20024;-73
2023/04/22 00:39:52;;;;;;;22.00;11.32;;;11.70;99.90;;;;;;5077122;28;20012;-73
2023/04/22 00:42:18;;;;;;;25.83;11.00;;;11.70;99.90;;;;;;5077213;28;20032;-73
2023/04/22 00:44:45;;;;;;;21.02;10.07;;;11.70;99.90;;;;;;5076015;28;20024;-73
2023/04/22 00:47:11;;;;;;;21.05;10.25;;;11.60;99.90;;;;;;5076070;28;20106;-73
2023/04/22 00:49:37;;;;;;;19.73;10.15;;;11.70;99.90;;;;;;5077311;28;20068;-73
2023/04/22 00:52:03;;;;;;;21.58;11.13;;;11.60;99.90;;;;;;5076312;28;20025;-73
2023/04/22 00:54:29;;;;;;;23.40;10.98;;;11.60;99.90;;;;;;5076759;28;20024;-74
2023/04/22 00:56:56;;;;;;;22.20;10.23;;;11.60;99.90;;;;;;5076819;28;20115;-73
2023/04/22 00:59:22;;;;;;;20.90;10.43;;;11.60;99.90;;;;;;5076892;28;20020;-73
2023/04/22 01:01:49;;;;;;;24.83;11.05;;;11.70;99.90;;;;;;5076120;28;20097;-73
2023/04/22 01:04:14;;;;;;;17.10;10.30;;;11.80;99.90;;;;;;5076708;28;20035;-73
2023/04/22 01:06:42;;;;;;;19.90;10.18;;;11.70;99.90;;;;;;5076191;28;20029;-73
2023/04/22 01:09:08;;;;;;;19.73;10.13;;;11.80;99.90;;;;;;5076174;28;20047;-73
2023/04/22 01:11:35;;;;;;;18.20;9.63;;;11.80;99.90;;;;;;5076673;28;20020;-73
2023/04/22 01:14:01;;;;;;;20.23;11.30;;;11.80;99.90;;;;;;5075876;28;20110;-73
2023/04/22 01:16:27;;;;;;;20.90;10.63;;;11.80;99.90;;;;;;5076694;28;20027;-73
2023/04/22 01:18:53;;;;;;;21.60;10.43;;;11.80;99.90;;;;;;5076721;28;20017;-73
2023/04/22 01:21:19;;;;;;;18.50;10.60;;;11.80;99.90;;;;;;5075987;28;20027;-73
2023/04/22 01:23:45;;;;;;;19.48;9.55;;;11.80;99.90;;;;;;5077685;28;20056;-73
2023/04/22 01:26:11;;;;;;;20.15;10.38;;;11.70;99.90;;;;;;5079642;28;20024;-73
2023/04/22 01:28:36;;;;;;;18.30;10.50;;;11.70;99.90;;;;;;5079617;28;20020;-73
2023/04/22 01:31:02;;;;;;;21.35;10.48;;;11.70;99.90;;;;;;5079770;28;20119;-73
2023/04/22 01:33:28;;;;;;;19.05;9.82;;;11.70;99.90;;;;;;5079964;28;20036;-73
2023/04/22 01:35:54;;;;;;;19.02;10.15;;;11.70;99.90;;;;;;5079299;28;20035;-73
2023/04/22 01:38:19;;;;;;;16.55;9.15;;;11.60;99.90;;;;;;5080632;28;20017;-73
2023/04/22 01:40:45;;;;;;;19.25;10.20;;;11.60;99.90;;;;;;5079571;28;20024;-73
2023/04/22 01:43:11;;;;;;;16.58;9.73;;;11.50;99.90;;;;;;5079349;28;20024;-73
2023/04/22 01:45:36;;;;;;;22.05;9.70;;;11.50;99.90;;;;;;5080090;28;20024;-73
2023/04/22 01:48:03;;;;;;;18.02;10.02;;;11.50;99.90;;;;;;5079983;28;20025;-73
2023/04/22 01:50:28;;;;;;;20.70;10.55;;;11.50;99.90;;;;;;5079146;28;20020;-73
2023/04/22 01:52:54;;;;;;;17.50;10.30;;;11.50;99.90;;;;;;5079113;28;20048;-73
2023/04/22 01:55:20;;;;;;;19.52;10.18;;;11.50;99.90;;;;;;5079050;28;20020;-73
2023/04/22 01:57:45;;;;;;;16.63;9.57;;;11.50;99.90;;;;;;5079515;28;20023;-73
2023/04/22 02:00:11;;;;;;;16.67;9.95;;;11.50;99.90;;;;;;5079317;28;20023;-73
2023/04/22 02:02:37;;;;;;;23.75;10.57;;;11.50;99.90;;;;;;5078891;28;20024;-73
2023/04/22 02:05:05;;;;;;;18.73;9.98;;;11.50;99.90;;;;;;5079806;28;20095;-73
2023/04/22 02:07:30;;;;;;;17.02;9.82;;;11.30;99.90;;;;;;5079145;28;20055;-73
2023/04/22 02:09:56;;;;;;;18.42;10.02;;;11.20;99.90;;;;;;5079227;28;20021;-73
2023/04/22 02:12:21;;;;;;;16.50;9.38;;;11.20;99.90;;;;;;5079521;28;20029;-73
2023/04/22 02:14:47;;;;;;;17.48;9.57;;;11.20;99.90;;;;;;5079580;28;20052;-73
2023/04/22 02:17:13;;;;;;;16.48;9.35;;;11.30;99.90;;;;;;5078675;28;20031;-73
2023/04/22 02:19:38;;;;;;;15.98;9.73;;;11.30;99.90;;;;;;5078974;28;20017;-73
2023/04/22 02:22:04;;;;;;;16.73;9.68;;;11.40;99.90;;;;;;5078657;28;20035;-73
2023/04/22 02:24:30;;;;;;;15.70;9.43;;;11.50;99.90;;;;;;5078402;28;20029;-73
2023/04/22 02:26:55;;;;;;;18.65;10.10;;;11.50;99.90;;;;;;5078896;28;20086;-73
2023/04/22 02:29:23;;;;;;;17.27;9.80;;;11.60;99.90;;;;;;5079038;28;20021;-73
2023/04/22 02:31:48;;;;;;;17.88;8.85;;;11.50;99.90;;;;;;5078347;28;20055;-73
2023/04/22 02:34:14;;;;;;;17.55;9.50;;;11.50;99.90;;;;;;5079322;28;20032;-73
2023/04/22 02:36:39;;;;;;;15.32;8.90;;;11.50;99.90;;;;;;5079248;28;20024;-73
2023/04/22 02:39:05;;;;;;;17.55;9.75;;;11.50;99.90;;;;;;5079342;28;20027;-73
2023/04/22 02:41:30;;;;;;;21.33;9.23;;;11.40;99.90;;;;;;5078673;28;20107;-73
2023/04/22 02:43:56;;;;;;;13.38;8.55;;;11.40;99.90;;;;;;5078373;28;20065;-73
2023/04/22 02:46:22;;;;;;;16.85;8.48;;;11.40;99.90;;;;;;5078228;28;20063;-73
2023/04/22 02:48:48;;;;;;;17.38;9.20;;;11.50;99.90;;;;;;5078801;28;20025;-73
2023/04/22 02:51:14;;;;;;;17.05;9.02;;;11.50;99.90;;;;;;5077926;28;20024;-73
2023/04/22 02:53:40;;;;;;;15.98;8.75;;;11.50;99.90;;;;;;5078323;28;20021;-73
2023/04/22 02:56:07;;;;;;;17.00;9.88;;;11.50;99.90;;;;;;5077992;28;20166;-73
2023/04/22 02:58:33;;;;;;;15.05;8.27;;;11.40;99.90;;;;;;5077901;28;20021;-73
2023/04/22 03:00:58;;;;;;;17.10;9.65;;;11.40;99.90;;;;;;5077824;28;20043;-73
2023/04/22 03:03:24;;;;;;;15.18;9.20;;;11.30;99.90;;;;;;5078462;28;20039;-73
2023/04/22 03:05:49;;;;;;;15.88;9.23;;;11.30;99.90;;;;;;5077786;28;20028;-73
2023/04/22 03:08:15;;;;;;;14.38;9.13;;;11.10;99.90;;;;;;5077640;28;20047;-73
2023/04/22 03:10:40;;;;;;;17.05;8.55;;;11.10;99.90;;;;;;5077603;28;20024;-73
2023/04/22 03:13:06;;;;;;;21.27;9.45;;;11.10;99.90;;;;;;5077516;28;20021;-73
2023/04/22 03:15:31;;;;;;;16.20;8.70;;;11.20;99.90;;;;;;5078475;28;20074;-73
2023/04/22 03:17:57;;;;;;;19.25;9.90;;;11.30;99.90;;;;;;5078417;28;20024;-73
2023/04/22 03:20:22;;;;;;;14.57;8.20;;;11.30;99.90;;;;;;5078447;28;20024;-73
2023/04/22 03:22:48;;;;;;;14.50;8.48;;;11.40;99.90;;;;;;5077533;28;20035;-73
2023/04/22 03:25:13;;;;;;;12.70;8.27;;;11.40;99.90;;;;;;5077168;28;20025;-73
2023/04/22 03:27:39;;;;;;;16.20;9.40;;;11.50;99.90;;;;;;5077189;28;20032;-73
2023/04/22 03:30:05;;;;;;;14.10;8.52;;;11.40;99.90;;;;;;5078433;28;20078;-73
2023/04/22 03:32:31;;;;;;;15.32;8.50;;;11.50;99.90;;;;;;5077184;28;20063;-73
2023/04/22 03:34:56;;;;;;;15.75;8.70;;;11.50;99.90;;;;;;5077090;28;20040;-73
2023/04/22 03:37:22;;;;;;;16.30;9.02;;;11.40;99.90;;;;;;5078203;28;20031;-73
2023/04/22 03:39:47;;;;;;;16.70;8.95;;;11.10;99.90;;;;;;5077485;28;20031;-73
2023/04/22 03:42:14;;;;;;;15.32;8.38;;;11.10;99.90;;;;;;5078039;28;20025;-73
2023/04/22 03:44:40;;;;;;;21.00;9.35;;;11.00;99.90;;;;;;5076947;28;20036;-73
2023/04/22 03:47:05;;;;;;;14.45;8.05;;;11.10;99.90;;;;;;5076609;28;20116;-73
2023/04/22 03:49:31;;;;;;;16.33;8.50;;;11.20;99.90;;;;;;5076895;28;20027;-73
2023/04/22 03:51:56;;;;;;;13.80;8.10;;;11.20;99.90;;;;;;5076711;28;20032;-73
2023/04/22 03:54:22;;;;;;;15.38;7.95;;;11.30;99.90;;;;;;5077890;28;20021;-73
2023/04/22 03:56:48;;;;;;;18.27;8.25;;;11.30;99.90;;;;;;5077083;28;20060;-73
2023/04/22 03:59:13;;;;;;;16.05;8.38;;;11.30;99.90;;;;;;5076707;28;20066;-73
2023/04/22 04:01:39;;;;;;;16.45;8.73;;;11.40;99.90;;;;;;5076596;28;20028;-73
2023/04/22 04:04:05;;;;;;;16.00;8.05;;;11.40;99.90;;;;;;5077725;28;20028;-73
2023/04/22 04:06:30;;;;;;;15.13;8.70;;;11.40;99.90;;;;;;5077511;28;20095;-73
2023/04/22 04:08:57;;;;;;;14.40;8.40;;;11.40;99.90;;;;;;5076875;28;20070;-73
2023/04/22 04:11:22;;;;;;;13.23;8.32;;;11.30;99.90;;;;;;5077359;28;20046;-73
2023/04/22 04:13:48;;;;;;;16.45;8.32;;;11.30;99.90;;;;;;5077175;28;20021;-73
2023/04/22 04:16:15;;;;;;;18.23;8.23;;;11.20;99.90;;;;;;5077362;28;20029;-73
2023/04/22 04:18:40;;;;;;;14.82;8.02;;;11.10;99.90;;;;;;5077569;28;20017;-73
2023/04/22 04:21:06;;;;;;;13.75;8.05;;;11.10;99.90;;;;;;5076461;28;20031;-73
2023/04/22 04:23:31;;;;;;;14.23;8.50;;;11.10;99.90;;;;;;5076274;28;20167;-73
2023/04/22 04:25:59;;;;;;;11.20;7.95;;;11.10;99.90;;;;;;5076362;28;20031;-73
2023/04/22 04:28:25;;;;;;;14.55;8.48;;;11.20;99.90;;;;;;5077081;28;20027;-73
2023/04/22 04:30:52;;;;;;;16.10;8.77;;;11.10;99.90;;;;;;5076636;28;20028;-73
2023/04/22 04:33:18;;;;;;;13.60;8.32;;;11.10;99.90;;;;;;5077397;28;20024;-74
2023/04/22 04:35:43;;;;;;;16.48;8.90;;;11.10;99.90;;;;;;5077775;28;20028;-74
2023/04/22 04:38:10;;;;;;;13.07;8.30;;;11.00;99.90;;;;;;5076992;28;20040;-74
2023/04/22 04:40:36;;;;;;;14.05;8.18;;;11.00;99.90;;;;;;5076976;28;20035;-74
2023/04/22 04:43:03;;;;;;;13.20;7.85;;;11.10;99.90;;;;;;5076188;28;20127;-74
2023/04/22 04:45:29;;;;;;;15.25;8.18;;;11.10;99.90;;;;;;5076498;28;20111;-73
2023/04/22 04:47:55;;;;;;;13.75;8.13;;;11.00;99.90;;;;;;5076483;28;20077;-73
2023/04/22 04:50:21;;;;;;;16.35;8.43;;;10.90;99.90;;;;;;5075942;28;20025;-73
2023/04/22 04:52:50;;;;;;;11.70;7.57;;;10.80;99.90;;;;;;5076238;28;20025;-73
2023/04/22 04:55:16;;;;;;;12.63;7.47;;;10.80;99.90;;;;;;5076017;28;20059;-73
2023/04/22 04:57:44;;;;;;;14.80;8.38;;;10.90;99.90;;;;;;5077691;28;20084;-73
2023/04/22 05:00:10;;;;;;;14.20;8.40;;;10.90;99.90;;;;;;5081000;28;20017;-73
2023/04/22 05:02:36;;;;;;;15.77;7.68;;;10.90;99.90;;;;;;5080538;28;20189;-73
2023/04/22 05:05:02;;;;;;;14.73;8.10;;;10.90;99.90;;;;;;5081133;28;20056;-73
2023/04/22 05:07:27;;;;;;;15.65;8.73;;;11.00;99.90;;;;;;5080102;28;20028;-73
2023/04/22 05:09:53;;;;;;;16.35;8.82;;;11.00;99.90;;;;;;5079920;28;20025;-73
2023/04/22 05:12:18;;;;;;;15.15;8.43;;;11.00;99.90;;;;;;5079831;28;20029;-73
2023/04/22 05:14:45;;;;;;;14.50;8.23;;;10.90;99.90;;;;;;5081006;28;20024;-73
2023/04/22 05:17:11;;;;;;;16.48;8.75;;;10.90;99.90;;;;;;5080841;28;20032;-73
2023/04/22 05:19:37;;;;;;;16.17;8.85;;;10.80;99.90;;;;;;5079820;28;20020;-73
2023/04/22 05:22:02;;;;;;;17.65;8.88;;;10.80;99.90;;;;;;5079693;28;20032;-73
2023/04/22 05:24:28;;;;;;;12.32;8.00;;;10.70;99.90;;;;;;5080705;28;20035;-73
2023/04/22 05:26:53;;;;;;;13.98;8.27;;;10.70;99.90;;;;;;5079744;28;20024;-73
2023/04/22 05:29:19;;;;;;;14.55;7.97;;;10.80;99.90;;;;;;5079830;28;20047;-73
2023/04/22 05:31:45;;;;;;;11.82;7.43;;;10.90;99.90;;;;;;5079526;28;20032;-73
2023/04/22 05:34:11;;;;;;;12.20;7.63;;;11.00;99.90;;;;;;5081218;28;20033;-70
2023/04/22 05:36:36;;;;;;;13.25;7.82;;;11.00;99.90;;;;;;5080886;28;20042;-69
2023/04/22 05:39:02;;;;;;;15.93;8.05;;;11.00;99.90;;;;;;5079470;28;20089;-69
2023/04/22 05:41:28;;;;;;;13.73;7.05;;;11.00;99.90;;;;;;5079301;28;20024;-70
2023/04/22 05:43:53;;;;;;;9.27;6.82;;;11.10;99.90;;;;;;5079818;28;20021;-69
2023/04/22 05:46:19;;;;;;;13.20;7.22;;;11.20;99.90;;;;;;5079356;28;20020;-70
2023/04/22 05:48:45;;;;;;;12.57;7.40;;;11.30;99.90;;;;;;5080332;28;20016;-69
2023/04/22 05:51:10;;;;;;;11.32;7.30;;;11.30;99.90;;;;;;5080010;28;20031;-70
2023/04/22 05:53:36;;;;;;;10.27;6.93;;;11.40;99.90;;;;;;5079229;28;20031;-70
2023/04/22 05:56:01;;;;;;;12.50;7.68;;;11.40;99.90;;;;;;5080110;28;20096;-69
2023/04/22 05:58:27;;;;;;;12.70;7.22;;;11.50;99.90;;;;;;5080195;28;20088;-70
2023/04/22 06:00:52;;;;;;;12.45;7.45;;;11.60;99.90;;;;;;5079084;28;20047;-69
2023/04/22 06:03:18;;;;;;;11.88;6.93;;;11.50;99.90;;;;;;5078998;28;20115;-70
2023/04/22 06:05:44;;;;;;;9.32;6.70;;;11.50;99.90;;;;;;5078701;28;20117;-69
2023/04/22 06:08:09;;;;;;;15.48;7.63;;;11.60;99.90;;;;;;5079061;28;20081;-69
2023/04/22 06:10:35;;;;;;;13.98;8.18;;;11.60;99.90;;;;;;5078202;28;20028;-69
2023/04/22 06:13:01;;;;;;;11.52;7.50;;;11.60;99.90;;;;;;5078702;28;20186;-70
2023/04/22 06:15:26;;;;;;;11.68;6.93;;;11.60;99.90;;;;;;5079066;28;20021;-69
2023/04/22 06:17:52;;;;;;;15.65;8.40;;;11.60;99.90;;;;;;5079896;28;20044;-69
2023/04/22 06:20:17;;;;;;;11.20;7.28;;;11.70;99.90;;;;;;5078702;28;20028;-69
2023/04/22 06:22:43;;;;;;;14.23;7.28;;;11.70;99.90;;;;;;5079939;28;20031;-70
2023/04/22 06:25:08;;;;;;;10.98;7.43;;;11.70;99.90;;;;;;5079355;28;20024;-69
2023/04/22 06:27:34;;;;;;;11.10;7.07;;;11.80;99.90;;;;;;5078974;28;20029;-69
2023/04/22 06:29:59;;;;;;;10.82;7.60;;;11.80;99.90;;;;;;5078615;28;20044;-70
2023/04/22 06:32:25;;;;;;;12.23;7.13;;;11.90;99.90;;;;;;5078359;28;20024;-69
2023/04/22 06:34:50;;;;;;;12.13;7.25;;;12.00;99.90;;;;;;5078616;28;20037;-69
2023/04/22 06:37:16;;;;;;;10.02;6.88;;;12.10;99.90;;;;;;5078266;28;20020;-70
2023/04/22 06:39:42;;;;;;;10.18;6.82;;;12.20;99.90;;;;;;5079874;28;20016;-70
2023/04/22 06:42:07;;;;;;;10.27;6.72;;;12.30;99.90;;;;;;5079234;28;20093;-69
2023/04/22 06:44:33;;;;;;;11.10;5.97;;;12.40;99.90;;;;;;5078481;28;20038;-69
2023/04/22 06:46:58;;;;;;;9.13;6.25;;;12.40;99.90;;;;;;5078971;28;20133;-70
2023/04/22 06:49:24;;;;;;;12.07;6.50;;;12.50;99.90;;;;;;5079270;28;20020;-70
2023/04/22 06:51:49;;;;;;;10.05;5.80;;;12.60;99.90;;;;;;5078107;28;20025;-69
2023/04/22 06:54:15;;;;;;;9.98;5.60;;;12.60;99.90;;;;;;5077836;28;20116;-70
2023/04/22 06:56:41;;;;;;;8.63;6.30;;;12.60;99.90;;;;;;5077946;28;20048;-70
2023/04/22 06:59:06;;;;;;;9.93;6.03;;;12.60;99.90;;;;;;5079106;28;20028;-70
2023/04/22 07:01:32;;;;;;;10.27;7.00;;;12.70;99.90;;;;;;5078736;28;20039;-69
2023/04/22 07:03:58;;;;;;;10.25;6.60;;;12.70;99.90;;;;;;5077884;28;20079;-70
2023/04/22 07:06:23;;;;;;;10.60;6.47;;;12.80;99.90;;;;;;5078591;28;20099;-70
2023/04/22 07:08:49;;;;;;;10.02;6.38;;;12.80;99.90;;;;;;5077659;28;20048;-70
2023/04/22 07:11:15;;;;;;;10.48;6.50;;;12.80;99.90;;;;;;5078589;28;20108;-70
2023/04/22 07:13:40;;;;;;;10.30;6.95;;;12.90;99.90;;;;;;5077516;28;20055;-70
2023/04/22 07:16:06;;;;;;;11.52;6.80;;;12.80;99.90;;;;;;5077730;28;20017;-70
2023/04/22 07:18:32;;;;;;;10.85;6.78;;;12.90;99.90;;;;;;5077455;28;20044;-70
2023/04/22 07:20:57;;;;;;;10.38;6.70;;;13.00;99.90;;;;;;5076472;28;20071;-70
2023/04/22 07:23:23;;;;;;;10.45;6.60;;;13.10;99.90;;;;;;5077451;28;20020;-69
2023/04/22 07:25:48;;;;;;;10.60;6.50;;;13.20;99.90;;;;;;5077279;28;20029;-70
2023/04/22 07:28:14;;;;;;;10.20;6.05;;;13.30;99.90;;;;;;5078615;28;20020;-70
2023/04/22 07:30:39;;;;;;;9.88;6.03;;;13.40;99.90;;;;;;5078172;28;20078;-70
2023/04/22 07:33:05;;;;;;;11.88;5.95;;;13.40;99.90;;;;;;5077238;28;20025;-70
2023/04/22 07:35:31;;;;;;;8.32;5.70;;;13.50;99.90;;;;;;5077066;28;20040;-70
2023/04/22 07:37:56;;;;;;;6.50;4.68;;;13.50;99.90;;;;;;5077104;28;20111;-70
2023/04/22 07:40:22;;;;;;;7.88;4.07;;;13.60;99.90;;;;;;5077471;28;20016;-69
2023/04/22 07:42:47;;;;;;;4.50;3.58;;;13.80;99.90;;;;;;5077985;28;20024;-70
2023/04/22 07:45:13;;;;;;;5.55;3.50;;;13.90;99.90;;;;;;5077842;28;20070;-70
2023/04/22 07:47:38;;;;;;;4.28;3.22;;;13.90;99.90;;;;;;5078488;28;20029;-70
2023/04/22 07:50:04;;;;;;;9.13;3.33;;;14.00;99.90;;;;;;5076987;28;20039;-70
2023/04/22 07:52:30;;;;;;;6.15;3.00;;;14.10;99.90;;;;;;5076857;28;20056;-70
2023/04/22 07:54:56;;;;;;;3.72;2.80;;;14.20;99.90;;;;;;5076672;28;20087;-70
2023/04/22 07:57:21;;;;;;;3.92;3.15;;;14.30;99.90;;;;;;5077972;28;20044;-70
2023/04/22 07:59:48;;;;;;;4.43;2.47;;;14.40;99.90;;;;;;5077152;28;20027;-70
2023/04/22 08:02:13;;;;;;;3.63;2.80;;;14.60;99.90;;;;;;5077595;28;20077;-70
2023/04/22 08:04:39;;;;;;;4.10;2.63;;;14.80;99.90;;;;;;5077543;28;20028;-69
2023/04/22 08:07:05;;;;;;;5.05;2.83;;;14.90;99.90;;;;;;5076650;28;20028;-70
2023/04/22 08:09:30;;;;;;;8.80;2.70;;;15.10;99.90;;;;;;5077321;28;20035;-70
2023/04/22 08:11:56;;;;;;;3.97;2.70;;;15.30;99.90;;;;;;5077276;28;20028;-70
2023/04/22 08:14:22;;;;;;;3.38;2.67;;;15.50;99.90;;;;;;5076480;28;20016;-70
2023/04/22 08:16:50;;;;;;;3.55;2.35;;;15.60;99.90;;;;;;5076556;28;20017;-70
2023/04/22 08:19:15;;;;;;;3.78;2.60;;;15.60;99.90;;;;;;5076914;28;20021;-69
2023/04/22 08:21:40;;;;;;;2.95;2.40;;;15.60;99.90;;;;;;5077238;28;20090;-70
2023/04/22 08:24:06;;;;;;;7.30;2.72;;;15.70;99.90;;;;;;5077244;28;20032;-70
2023/04/22 08:26:32;;;;;;;3.65;2.60;;;15.70;99.90;;;;;;5077068;28;20021;-70
2023/04/22 08:28:57;;;;;;;4.05;2.50;;;15.80;99.90;;;;;;5077412;28;20021;-69
2023/04/22 08:31:23;;;;;;;4.45;2.72;;;15.90;99.90;;;;;;5077395;28;20024;-69
2023/04/22 08:33:49;;;;;;;3.58;2.72;;;15.90;99.90;;;;;;5076372;28;20036;-69
2023/04/22 08:36:15;;;;;;;8.02;2.72;;;15.90;99.90;;;;;;5076295;28;20032;-69
2023/04/22 08:38:40;;;;;;;3.13;2.47;;;15.90;99.90;;;;;;5076222;28;20021;-69
2023/04/22 08:41:07;;;;;;;3.72;2.60;;;15.90;99.90;;;;;;5077162;28;20031;-69
2023/04/22 08:43:33;;;;;;;4.10;2.75;;;16.00;99.90;;;;;;5076414;28;20020;-69
2023/04/22 08:45:59;;;;;;;5.25;2.80;;;16.00;99.90;;;;;;5076172;28;20132;-69
2023/04/22 08:48:25;;;;;;;6.10;2.80;;;16.20;99.90;;;;;;5076856;28;20056;-69
2023/04/22 08:50:52;;;;;;;4.55;2.85;;;16.40;99.90;;;;;;5076858;28;20033;-68
2023/04/22 08:53:19;;;;;;;4.95;2.88;;;16.50;99.90;;;;;;5076959;28;20123;-69
2023/04/22 08:55:45;;;;;;;6.35;2.70;;;16.70;99.90;;;;;;5076082;28;20024;-68
2023/04/22 08:58:11;;;;;;;3.55;2.50;;;16.70;99.90;;;;;;5076918;28;20021;-69
2023/04/22 09:00:38;;;;;;;7.35;3.05;;;16.80;99.90;;;;;;5077010;28;20016;-68
2023/04/22 09:03:05;;;;;;;9.18;2.40;;;17.10;99.90;;;;;;5076806;28;20028;-68
2023/04/22 09:05:36;;;;;;;5.47;2.63;;;17.10;99.90;;;;;;5076889;28;20027;-68
2023/04/22 09:08:02;;;;;;;4.07;2.67;;;17.20;99.90;;;;;;5076238;28;20029;-68
2023/04/22 09:10:29;;;;;;;3.90;2.20;;;17.30;99.90;;;;;;5077054;28;20032;-68
2023/04/22 09:12:57;;;;;;;3.28;2.65;;;17.30;99.90;;;;;;5076811;28;20028;-68
2023/04/22 09:15:23;;;;;;;4.13;2.58;;;17.30;99.90;;;;;;5076081;28;20067;-68
2023/04/22 09:17:51;;;;;;;4.63;2.55;;;17.40;99.90;;;;;;5076750;28;20103;-68
2023/04/22 09:20:18;;;;;;;3.47;2.55;;;17.50;99.90;;;;;;5077010;28;20096;-68
2023/04/22 09:22:46;;;;;;;4.05;2.08;;;17.60;99.90;;;;;;5076079;28;20031;-69
2023/04/22 09:25:20;;;;;;;4.00;2.40;;;17.70;99.90;;;;;;5075679;28;20029;-68
2023/04/22 09:27:54;;;;;;;5.38;2.70;;;17.90;99.90;;;;;;5075818;28;20123;-69
2023/04/22 09:30:30;;;;;;;3.00;2.50;;;17.90;99.90;;;;;;5076485;28;20025;-69
2023/04/22 09:33:01;;;;;;;5.65;2.80;;;18.00;99.90;;;;;;5077118;28;20079;-69
2023/04/22 09:35:34;;;;;;;5.47;2.55;;;18.00;99.90;;;;;;5075553;28;20032;-68
2023/04/22 09:38:02;;;;;;;3.35;2.13;;;18.10;99.90;;;;;;5076185;28;20020;-69
2023/04/22 09:40:29;;;;;;;3.53;2.15;;;18.20;99.90;;;;;;5075692;28;20016;-68
2023/04/22 09:42:57;;;;;;;3.00;2.67;;;18.40;99.90;;;;;;5075825;28;20048;-68
2023/04/22 09:45:40;;;;;;;3.63;2.10;;;18.60;99.90;;;;;;5079076;28;20146;-68
2023/04/22 09:48:17;;;;;;;3.53;2.10;;;18.70;99.90;;;;;;5079599;28;20050;-68
2023/04/22 09:50:45;;;;;;;3.90;2.53;;;18.70;99.90;;;;;;5080147;28;20029;-68
2023/04/22 09:53:14;;;;;;;6.20;2.83;;;18.60;99.90;;;;;;5079025;28;20028;-69
2023/04/22 09:55:42;;;;;;;3.33;2.40;;;18.60;99.90;;;;;;5079036;28;20025;-69
2023/04/22 09:58:16;;;;;;;3.90;2.30;;;18.60;99.90;;;;;;5079143;28;20024;-69
2023/04/22 10:00:55;;;;;;;4.22;2.45;;;18.80;99.90;;;;;;5079058;28;20025;-68
2023/04/22 10:03:21;;;;;;;3.15;2.38;;;18.90;99.90;;;;;;5079914;28;20021;-69
2023/04/22 10:05:47;;;;;;;3.50;2.53;;;19.00;99.90;;;;;;5079233;28;20032;-68
2023/04/22 10:08:14;;;;;;;3.22;2.47;;;19.10;99.90;;;;;;5079145;28;20025;-68
2023/04/22 10:10:40;;;;;;;3.05;2.33;;;19.10;99.90;;;;;;5079419;28;20123;-68
2023/04/22 10:13:07;;;;;;;4.30;2.20;;;19.20;99.90;;;;;;5078838;28;20032;-68
2023/04/22 10:15:42;;;;;;;2.72;2.30;;;19.10;99.90;;;;;;5078713;28;20028;-69
2023/04/22 10:18:11;;;;;;;2.45;1.98;;;19.10;99.90;;;;;;5079711;28;20020;-68
2023/04/22 10:20:38;;;;;;;2.38;2.00;;;19.30;99.90;;;;;;5079090;28;20111;-69
2023/04/22 10:23:05;;;;;;;3.22;2.40;;;19.30;99.90;;;;;;5078634;28;20024;-68
2023/04/22 10:25:31;;;;;;;2.50;1.95;;;19.40;99.90;;;;;;5078689;28;20024;-68
2023/04/22 10:28:05;;;;;;;3.97;2.47;;;19.40;99.90;;;;;;5078529;28;20028;-68
2023/04/22 10:30:32;;;;;;;2.45;2.17;;;19.50;99.90;;;;;;5078433;28;20024;-69
2023/04/22 10:33:20;;;;;;;4.68;2.08;;;19.50;99.90;;;;;;5079660;28;20080;-68
2023/04/22 10:36:09;;;;;;;3.88;2.50;;;19.50;99.90;;;;;;5078288;28;20036;-68
2023/04/22 10:38:36;;;;;;;3.15;2.47;;;19.40;99.90;;;;;;5080004;28;20108;-69
2023/04/22 10:41:02;;;;;;;3.65;2.45;;;19.30;99.90;;;;;;5078275;28;20020;-69
2023/04/22 10:43:42;;;;;;;3.55;2.92;;;19.30;99.90;;;;;;5078355;28;20024;-69
2023/04/22 10:46:34;;;;;;;3.92;2.42;;;19.40;99.90;;;;;;5079368;28;20055;-70
2023/04/22 10:49:06;;;;;;;3.38;2.50;;;19.50;99.90;;;;;;5078136;28;20047;-69
2023/04/22 10:51:48;;;;;;;4.65;3.00;;;19.80;99.90;;;;;;5078709;28;20097;-69
2023/04/22 10:54:26;;;;;;;5.90;2.53;;;20.00;99.90;;;;;;5077989;28;20021;-69
2023/04/22 10:57:17;;;;;;;4.25;2.20;;;20.10;99.90;;;;;;5077841;28;20059;-69
2023/04/22 10:59:50;;;;;;;2.80;2.47;;;20.30;99.90;;;;;;5077982;28;20020;-69
2023/04/22 11:02:17;;;;;;;3.22;2.38;;;20.40;99.90;;;;;;5077925;28;20087;-69
2023/04/22 11:04:43;;;;;;;3.22;2.53;;;20.30;99.90;;;;;;5078050;28;20025;-69
2023/04/22 11:07:25;;;;;;;2.55;2.33;;;20.10;99.90;;;;;;5078181;28;20055;-69
2023/04/22 11:10:09;;;;;;;3.75;2.17;;;20.10;99.90;;;;;;5078916;28;20107;-70
2023/04/22 11:12:34;;;;;;;2.90;1.95;;;20.00;99.90;;;;;;5078587;28;20104;-69
2023/04/22 11:15:23;;;;;;;3.53;2.22;;;20.10;99.90;;;;;;5078546;28;20044;-69
2023/04/22 11:17:53;;;;;;;3.85;2.20;;;20.30;99.90;;;;;;5078618;28;20023;-69
2023/04/22 11:20:20;;;;;;;5.32;2.35;;;20.50;99.90;;;;;;5077729;28;20044;-69
2023/04/22 11:22:50;;;;;;;2.58;1.85;;;20.50;99.90;;;;;;5078311;28;20036;-69
2023/04/22 11:25:16;;;;;;;2.83;2.27;;;20.50;99.90;;;;;;5077400;28;20086;-69
2023/04/22 11:27:42;;;;;;;2.22;1.83;;;20.40;99.90;;;;;;5077617;28;20031;-69
2023/04/22 11:30:16;;;;;;;3.55;1.80;;;20.30;99.90;;;;;;5077837;28;20031;-69
2023/04/22 11:32:44;;;;;;;1.92;1.75;;;20.30;99.90;;;;;;5077317;28;20067;-69
2023/04/22 11:35:12;;;;;;;4.57;2.35;;;20.30;99.90;;;;;;5077876;28;20048;-69
2023/04/22 11:37:49;;;;;;;3.08;1.90;;;20.40;99.90;;;;;;5077285;28;20085;-69
2023/04/22 11:40:20;;;;;;;2.60;2.00;;;20.60;99.90;;;;;;5077982;28;20017;-69
2023/04/22 11:42:47;;;;;;;4.38;2.30;;;21.00;99.90;;;;;;5077122;28;20025;-70
2023/04/22 11:45:15;;;;;;;2.22;1.90;;;21.30;99.90;;;;;;5078204;28;20115;-70
2023/04/22 11:47:41;;;;;;;3.30;2.05;;;21.50;99.90;;;;;;5077949;28;20020;-69
2023/04/22 11:50:10;;;;;;;2.78;2.00;;;21.60;99.90;;;;;;5077029;28;20032;-69
2023/04/22 11:52:46;;;;;;;4.57;1.98;;;21.80;99.90;;;;;;5077496;28;20048;-73
2023/04/22 11:55:31;;;;;;;2.30;1.77;;;22.00;99.90;;;;;;5077201;28;20044;-71
2023/04/22 11:58:06;;;;;;;4.55;1.92;;;22.20;99.90;;;;;;5077420;28;20017;-72
2023/04/22 12:00:36;;;;;;;3.58;1.80;;;22.40;99.90;;;;;;5076831;28;20021;-72
2023/04/22 12:03:17;;;;;;;3.55;1.85;;;22.30;99.90;;;;;;5076890;28;20093;-71
2023/04/22 12:05:43;;;;;;;2.95;1.38;;;22.50;99.90;;;;;;5077687;28;20021;-71
2023/04/22 12:08:17;;;;;;;3.47;1.80;;;22.60;99.90;;;;;;5076367;28;20105;-71
2023/04/22 12:10:52;;;;;;;2.00;1.30;;;22.80;99.90;;;;;;5076488;28;20029;-72
2023/04/22 12:13:22;;;;;;;4.28;1.75;;;23.00;99.90;;;;;;5076560;28;20024;-71
2023/04/22 12:15:52;;;;;;;2.75;1.80;;;23.10;99.90;;;;;;5077066;28;20054;-71
2023/04/22 12:18:28;;;;;;;3.75;1.70;;;23.20;99.90;;;;;;5077042;28;20054;-71
2023/04/22 12:21:17;;;;;;;2.15;1.48;;;23.30;99.90;;;;;;5077314;28;20023;-69
2023/04/22 12:23:47;;;;;;;3.97;1.80;;;23.40;99.90;;;;;;5076457;28;20161;-69
2023/04/22 12:26:17;;;;;;;3.65;2.58;;;23.50;98.60;;;;;;5077236;28;20095;-69
2023/04/22 12:28:43;;;;;;;2.38;1.42;;;23.70;99.90;;;;;;5076741;28;20052;-69
2023/04/22 12:31:10;;;;;;;20.17;9.10;;;23.80;98.70;;;;;;5077291;28;20027;-70
2023/04/22 12:33:37;;;;;;;10.10;5.28;;;23.90;99.10;;;;;;5076624;28;20092;-69
2023/04/22 12:36:03;;;;;;;2.10;1.90;;;24.00;99.40;;;;;;5076194;28;20029;-70
2023/04/22 12:38:29;;;;;;;3.63;1.80;;;24.00;97.50;;;;;;5076363;28;20031;-70
2023/04/22 12:40:55;;;;;;;4.20;1.90;;;23.80;97.70;;;;;;5076205;28;20017;-69